.
WxDataArchive / Data Records for 2015-01-01
2014-12-31 January 2015 2015-01-02

Data Records for Thursday, 01 January 2015

Time	Temp	Chill	HIndex	Humid	Dewpt	 Wind 	HiWind	WindDir	Rain 	Barom
-----	----	-----	------	-----	-----	------	------	-------	-----	-----
00:00	18.9	18.9	18.9	57	6.2	3	9	248	0.00	30.210 
00:05	18.9	18.9	18.9	57	6.2	2	6	248	0.00	30.210 
00:10	18.9	18.9	18.9	57	6.2	2	7	270	0.00	30.210 
00:15	18.8	18.8	18.8	57	6.1	2	7	248	0.00	30.208 
00:20	18.8	18.8	18.8	57	6.1	2	12	248	0.00	30.208 
00:25	18.9	18.9	18.9	57	6.2	3	7	248	0.00	30.208 
00:30	18.9	18.9	18.9	57	6.2	3	10	248	0.00	30.199 
00:35	18.9	18.9	18.9	56	5.8	2	8	270	0.00	30.199 
00:40	18.9	18.9	18.9	57	6.2	2	7	248	0.00	30.199 
00:45	18.9	18.9	18.9	57	6.2	3	9	248	0.00	30.192 
00:50	18.9	18.9	18.9	57	6.2	3	7	248	0.00	30.192 
00:55	18.8	18.8	18.8	57	6.1	2	6	248	0.00	30.192 
01:00	18.8	18.8	18.8	57	6.1	2	10	248	0.00	30.193 
01:05	18.8	18.8	18.8	57	6.1	3	6	248	0.00	30.193 
01:10	18.8	18.8	18.8	57	6.1	1	6	270	0.00	30.193 
01:15	18.8	18.8	18.8	57	6.1	2	6	248	0.00	30.184 
01:20	18.8	18.8	18.8	57	6.1	2	7	270	0.00	30.184 
01:25	18.8	18.8	18.8	57	6.1	2	11	248	0.00	30.184 
01:30	18.8	18.8	18.8	57	6.1	1	5	248	0.00	30.180 
01:35	18.8	18.8	18.8	57	6.1	2	5	248	0.00	30.180 
01:40	18.8	18.8	18.8	57	6.1	2	6	248	0.00	30.180 
01:45	18.8	18.8	18.8	57	6.1	2	5	270	0.00	30.176 
01:50	18.8	18.8	18.8	57	6.1	2	5	248	0.00	30.176 
01:55	18.8	18.8	18.8	56	5.7	2	7	248	0.00	30.176 
02:00	18.8	18.8	18.8	56	5.7	2	6	248	0.00	30.175 
02:05	18.8	18.8	18.8	56	5.7	2	6	248	0.00	30.175 
02:10	18.8	18.8	18.8	56	5.7	2	6	248	0.00	30.175 
02:15	18.8	18.8	18.8	56	5.7	1	4	248	0.00	30.172 
02:20	18.6	18.6	18.6	56	5.5	1	4	248	0.00	30.172 
02:25	18.6	18.6	18.6	56	5.5	2	6	248	0.00	30.172 
02:30	18.6	18.6	18.6	56	5.5	2	6	270	0.00	30.167 
02:35	18.6	18.6	18.6	56	5.5	1	5	248	0.00	30.167 
02:40	18.6	18.6	18.6	56	5.5	2	7	248	0.00	30.167 
02:45	18.6	18.6	18.6	56	5.5	1	4	248	0.00	30.168 
02:50	18.6	18.6	18.6	56	5.5	1	6	248	0.00	30.168 
02:55	18.6	18.6	18.6	56	5.5	1	4	248	0.00	30.168 
03:00	18.6	18.6	18.6	56	5.5	2	9	248	0.00	30.167 
03:05	18.8	18.8	18.8	56	5.7	2	6	248	0.00	30.167 
03:10	18.8	18.8	18.8	56	5.7	3	6	248	0.00	30.167 
03:15	18.8	18.8	18.8	56	5.7	3	7	248	0.00	30.159 
03:20	18.8	18.8	18.8	56	5.7	2	9	248	0.00	30.159 
03:25	18.6	18.6	18.6	56	5.5	2	6	248	0.00	30.159 
03:30	18.6	18.6	18.6	56	5.5	1	5	248	0.00	30.159 
03:35	18.4	18.4	18.4	56	5.4	1	6	248	0.00	30.159 
03:40	18.4	18.4	18.4	57	5.7	2	6	248	0.00	30.159 
03:45	18.4	18.4	18.4	57	5.7	1	5	248	0.00	30.156 
03:50	18.3	18.3	18.3	57	5.7	1	3	248	0.00	30.156 
03:55	18.3	18.3	18.3	57	5.7	1	4	248	0.00	30.156 
04:00	18.3	18.3	18.3	57	5.7	2	5	270	0.00	30.149 
04:05	18.3	18.3	18.3	57	5.7	1	4	248	0.00	30.149 
04:10	18.3	18.3	18.3	57	5.7	2	6	248	0.00	30.149 
04:15	18.3	18.3	18.3	57	5.7	1	5	248	0.00	30.145 
04:20	18.3	18.3	18.3	57	5.7	2	7	248	0.00	30.145 
04:25	18.3	18.3	18.3	57	5.7	2	6	248	0.00	30.145 
04:30	18.3	18.3	18.3	57	5.7	2	5	248	0.00	30.144 
04:35	18.1	18.1	18.1	57	5.5	1	5	248	0.00	30.144 
04:40	18.1	18.1	18.1	57	5.5	2	7	248	0.00	30.144 
04:45	18.1	18.1	18.1	57	5.5	2	7	248	0.00	30.138 
04:50	18.1	18.1	18.1	57	5.5	3	9	248	0.00	30.138 
04:55	18.1	18.1	18.1	57	5.5	1	4	248	0.00	30.138 
05:00	18.0	18.0	18.0	58	5.7	1	5	248	0.00	30.132 
05:05	18.0	18.0	18.0	58	5.7	1	6	248	0.00	30.132 
05:10	17.8	17.8	17.8	58	5.6	2	5	248	0.00	30.132 
05:15	17.8	17.8	17.8	58	5.6	1	4	248	0.00	30.122 
05:20	17.8	17.8	17.8	58	5.6	1	4	248	0.00	30.122 
05:25	17.8	17.8	17.8	58	5.6	2	5	248	0.00	30.122 
05:30	17.8	17.8	17.8	58	5.6	1	7	248	0.00	30.116 
05:35	17.7	17.7	17.7	58	5.5	1	4	248	0.00	30.116 
05:40	17.7	17.7	17.7	58	5.5	2	5	248	0.00	30.116 
05:45	17.7	17.7	17.7	58	5.5	1	4	248	0.00	30.118 
05:50	17.7	17.7	17.7	58	5.5	1	5	248	0.00	30.118 
05:55	17.7	17.7	17.7	58	5.5	2	7	248	0.00	30.118 
06:00	17.7	17.7	17.7	58	5.5	1	5	248	0.00	30.116 
06:05	17.7	17.7	17.7	58	5.5	2	4	248	0.00	30.116 
06:10	17.7	17.7	17.7	59	5.8	1	4	248	0.00	30.116 
06:15	17.7	17.7	17.7	59	5.8	2	7	270	0.00	30.117 
06:20	17.5	17.5	17.5	59	5.6	1	4	270	0.00	30.117 
06:25	17.5	17.5	17.5	59	5.6	1	6	248	0.00	30.117 
06:30	17.3	17.3	17.3	59	5.5	2	5	248	0.00	30.116 
06:35	17.3	17.3	17.3	59	5.5	1	6	248	0.00	30.116 
06:40	17.3	17.3	17.3	59	5.5	1	5	248	0.00	30.116 
06:45	17.3	17.3	17.3	59	5.5	2	6	248	0.00	30.111 
06:50	17.3	17.3	17.3	60	5.8	1	4	248	0.00	30.111 
06:55	17.3	17.3	17.3	60	5.8	1	4	248	0.00	30.111 
07:00	17.3	17.3	17.3	60	5.8	2	6	248	0.00	30.117 
07:05	17.3	17.3	17.3	60	5.8	1	7	248	0.00	30.117 
07:10	17.3	17.3	17.3	60	5.8	3	7	248	0.00	30.117 
07:15	17.3	17.3	17.3	60	5.8	2	7	248	0.00	30.123 
07:20	17.3	17.3	17.3	60	5.8	1	3	248	0.00	30.123 
07:25	17.3	17.3	17.3	60	5.8	2	7	248	0.00	30.123 
07:30	17.3	17.3	17.3	60	5.8	2	4	248	0.00	30.125 
07:35	17.2	17.2	17.2	60	5.7	0	3	248	0.00	30.125 
07:40	17.2	17.2	17.2	61	6.1	1	7	248	0.00	30.125 
07:45	17.2	17.2	17.2	61	6.1	2	5	248	0.00	30.120 
07:50	17.2	17.2	17.2	61	6.1	1	5	248	0.00	30.120 
07:55	17.2	17.2	17.2	61	6.1	1	5	248	0.00	30.120 
08:00	17.0	17.0	17.0	61	5.9	2	5	248	0.00	30.116 
08:05	17.2	17.2	17.2	61	6.1	2	7	248	0.00	30.116 
08:10	17.2	17.2	17.2	61	6.1	2	5	270	0.00	30.116 
08:15	17.2	17.2	17.2	61	6.1	2	7	248	0.00	30.114 
08:20	17.2	17.2	17.2	61	6.1	3	7	248	0.00	30.114 
08:25	17.3	17.3	17.3	60	5.8	3	7	248	0.00	30.114 
08:30	17.3	17.3	17.3	61	6.2	1	5	248	0.00	30.113 
08:35	17.3	17.3	17.3	61	6.2	1	5	248	0.00	30.113 
08:40	17.5	17.5	17.5	60	6.0	2	7	248	0.00	30.113 
08:45	17.5	17.5	17.5	60	6.0	3	7	248	0.00	30.100 
08:50	17.7	17.7	17.7	60	6.2	2	6	248	0.00	30.100 
08:55	17.7	17.7	17.7	60	6.2	2	6	248	0.00	30.100 
09:00	17.8	17.8	17.8	59	5.9	2	6	248	0.00	30.101 
09:05	18.0	18.0	18.0	59	6.1	3	9	248	0.00	30.101 
09:10	18.0	18.0	18.0	59	6.1	2	5	248	0.00	30.101 
09:15	18.1	18.1	18.1	59	6.2	2	6	248	0.00	30.106 
09:20	18.1	18.1	18.1	58	5.8	3	7	248	0.00	30.106 
09:25	18.3	18.3	18.3	58	6.0	3	7	248	0.00	30.106 
09:30	18.4	18.4	18.4	58	6.1	2	7	270	0.00	30.100 
09:35	18.8	18.8	18.8	58	6.5	2	6	248	0.00	30.100 
09:40	19.1	19.1	19.1	57	6.4	2	6	248	0.00	30.100 
09:45	19.2	19.2	19.2	57	6.5	3	6	248	0.00	30.096 
09:50	19.5	19.5	19.5	57	6.8	2	6	248	0.00	30.096 
09:55	19.9	19.9	19.9	56	6.8	1	5	270	0.00	30.096 
10:00	20.2	20.2	20.2	56	7.0	1	6	248	0.00	30.097 
10:05	20.6	20.6	20.6	55	7.0	2	7	248	0.00	30.097 
10:10	20.8	20.8	20.8	54	6.8	2	8	248	0.00	30.097 
10:15	21.1	21.1	21.1	54	7.1	2	7	248	0.00	30.099 
10:20	21.4	21.4	21.4	53	7.0	2	7	248	0.00	30.099 
10:25	21.6	21.6	21.6	53	7.1	2	6	248	0.00	30.099 
10:30	21.8	21.8	21.8	52	6.9	3	7	248	0.00	30.095 
10:35	21.9	21.9	21.9	52	7.0	3	10	248	0.00	30.095 
10:40	22.1	22.1	22.1	52	7.2	1	5	248	0.00	30.095 
10:45	22.5	22.5	22.5	51	7.1	2	6	248	0.00	30.094 
10:50	22.7	22.7	22.7	50	6.9	3	7	248	0.00	30.094 
10:55	23.0	23.0	23.0	49	6.7	3	9	248	0.00	30.094 
11:00	23.2	23.2	23.2	49	6.9	3	7	248	0.00	30.093 
11:05	23.5	23.5	23.5	49	7.2	2	7	248	0.00	30.093 
11:10	23.6	23.6	23.6	49	7.3	3	10	248	0.00	30.093 
11:15	23.8	23.8	23.8	49	7.5	2	6	248	0.00	30.092 
11:20	24.1	24.1	24.1	48	7.3	3	7	248	0.00	30.092 
11:25	24.2	24.2	24.2	47	6.9	3	9	248	0.00	30.092 
11:30	24.4	24.4	24.4	48	7.6	2	7	248	0.00	30.082 
11:35	24.5	24.5	24.5	47	7.2	3	8	248	0.00	30.082 
11:40	24.7	24.7	24.7	47	7.4	3	9	248	0.00	30.082 
11:45	25.0	20.0	25.0	46	7.2	4	10	248	0.00	30.072 
11:50	25.3	25.3	25.3	46	7.4	3	11	248	0.00	30.072 
11:55	25.6	25.6	25.6	46	7.7	3	11	248	0.00	30.072 
12:00	25.4	20.5	25.4	45	7.1	4	9	248	0.00	30.066 
12:05	25.4	20.5	25.4	46	7.5	4	14	248	0.00	30.066 
12:10	25.4	20.5	25.4	46	7.5	4	13	248	0.00	30.066 
12:15	25.4	20.5	25.4	46	7.5	4	13	248	0.00	30.054 
12:20	25.6	25.6	25.6	46	7.7	3	10	248	0.00	30.054 
12:25	25.8	20.9	25.8	45	7.4	4	11	248	0.00	30.054 
12:30	26.0	26.0	26.0	46	8.1	3	10	248	0.00	30.044 
12:35	26.1	26.1	26.1	46	8.2	3	14	248	0.00	30.044 
12:40	26.1	20.1	26.1	45	7.7	5	13	248	0.00	30.044 
12:45	26.3	20.4	26.3	45	7.9	5	13	248	0.00	30.040 
12:50	26.4	26.4	26.4	45	8.0	3	7	270	0.00	30.040 
12:55	26.7	22.0	26.7	45	8.2	4	11	248	0.00	30.040 
13:00	26.7	22.0	26.7	45	8.2	4	10	248	0.00	30.038 
13:05	26.9	26.9	26.9	45	8.4	3	7	270	0.00	30.038 
13:10	27.0	27.0	27.0	45	8.5	3	9	270	0.00	30.038 
13:15	27.2	27.2	27.2	45	8.7	3	7	270	0.00	30.031 
13:20	27.3	27.3	27.3	46	9.3	3	12	248	0.00	30.031 
13:25	27.5	27.5	27.5	45	9.0	3	10	248	0.00	30.031 
13:30	27.5	22.9	27.5	45	9.0	4	11	248	0.00	30.025 
13:35	27.6	23.0	27.6	45	9.1	4	12	248	0.00	30.025 
13:40	27.6	27.6	27.6	46	9.6	3	11	248	0.00	30.025 
13:45	27.8	23.2	27.8	45	9.3	4	8	248	0.00	30.026 
13:50	27.8	23.2	27.8	46	9.7	4	11	248	0.00	30.026 
13:55	27.8	27.8	27.8	46	9.7	3	9	248	0.00	30.026 
14:00	28.2	28.2	28.2	46	10.1	3	10	270	0.00	30.016 
14:05	28.4	28.4	28.4	46	10.3	3	9	248	0.00	30.016 
14:10	28.2	23.7	28.2	46	10.1	4	7	270	0.00	30.016 
14:15	28.4	28.4	28.4	46	10.3	3	10	248	0.00	30.016 
14:20	28.4	28.4	28.4	47	10.8	2	9	248	0.00	30.016 
14:25	28.7	28.7	28.7	46	10.6	2	6	248	0.00	30.016 
14:30	28.7	28.7	28.7	47	11.0	3	5	248	0.00	30.014 
14:35	28.5	28.5	28.5	47	10.9	3	7	248	0.00	30.014 
14:40	28.5	24.0	28.5	46	10.4	4	10	248	0.00	30.014 
14:45	28.2	23.7	28.2	47	10.6	4	10	248	0.00	30.010 
14:50	28.2	28.2	28.2	48	11.1	3	8	248	0.00	30.010 
14:55	28.4	28.4	28.4	47	10.8	3	12	248	0.00	30.010 
15:00	28.4	23.9	28.4	47	10.8	4	14	248	0.00	30.013 
15:05	28.4	23.9	28.4	48	11.2	4	10	248	0.00	30.013 
15:10	28.5	28.5	28.5	47	10.9	3	6	248	0.00	30.013 
15:15	28.7	28.7	28.7	48	11.5	3	10	270	0.00	30.021 
15:20	28.8	28.8	28.8	47	11.1	3	9	248	0.00	30.021 
15:25	29.0	24.6	29.0	47	11.3	4	10	248	0.00	30.021 
15:30	29.0	29.0	29.0	47	11.3	3	9	248	0.00	30.026 
15:35	29.1	29.1	29.1	47	11.4	3	8	248	0.00	30.026 
15:40	29.3	29.3	29.3	47	11.6	2	6	248	0.00	30.026 
15:45	29.3	29.3	29.3	48	12.1	2	6	248	0.00	30.024 
15:50	29.3	29.3	29.3	48	12.1	3	9	270	0.00	30.024 
15:55	29.1	29.1	29.1	48	11.9	2	7	248	0.00	30.024 
16:00	29.1	29.1	29.1	48	11.9	2	5	248	0.00	30.025 
16:05	29.0	29.0	29.0	49	12.3	1	3	248	0.00	30.025 
16:10	29.0	29.0	29.0	49	12.3	2	6	248	0.00	30.025 
16:15	28.8	28.8	28.8	49	12.1	2	10	248	0.00	30.024 
16:20	28.8	28.8	28.8	50	12.5	2	10	248	0.00	30.024 
16:25	28.8	28.8	28.8	50	12.5	1	5	248	0.00	30.024 
16:30	28.8	28.8	28.8	50	12.5	3	7	248	0.00	30.035 
16:35	28.7	28.7	28.7	50	12.4	2	7	248	0.00	30.035 
16:40	28.5	28.5	28.5	50	12.3	3	6	248	0.00	30.035 
16:45	28.4	28.4	28.4	50	12.2	2	8	248	0.00	30.055 
16:50	28.4	28.4	28.4	51	12.6	1	5	270	0.00	30.055 
16:55	28.2	28.2	28.2	51	12.4	2	6	248	0.00	30.055 
17:00	28.1	28.1	28.1	51	12.3	2	5	248	0.00	30.055 
17:05	27.9	27.9	27.9	51	12.1	1	6	248	0.00	30.055 
17:10	27.8	27.8	27.8	51	12.1	2	5	270	0.00	30.055 
17:15	27.6	27.6	27.6	52	12.3	1	5	248	0.00	30.068 
17:20	27.6	27.6	27.6	52	12.3	1	4	248	0.00	30.068 
17:25	27.5	27.5	27.5	52	12.2	2	7	270	0.00	30.068 
17:30	27.5	27.5	27.5	52	12.2	2	9	248	0.00	30.072 
17:35	27.3	27.3	27.3	53	12.5	2	6	248	0.00	30.072 
17:40	27.3	27.3	27.3	53	12.5	1	3	248	0.00	30.072 
17:45	27.2	27.2	27.2	53	12.4	2	7	248	0.00	30.074 
17:50	27.2	27.2	27.2	53	12.4	1	3	248	0.00	30.074 
17:55	27.2	27.2	27.2	54	12.8	2	7	248	0.00	30.074 
18:00	27.2	27.2	27.2	54	12.8	2	7	248	0.00	30.078 
18:05	27.2	27.2	27.2	54	12.8	2	6	248	0.00	30.078 
18:10	27.2	27.2	27.2	54	12.8	3	7	248	0.00	30.078 
18:15	27.2	27.2	27.2	54	12.8	2	6	248	0.00	30.079 
18:20	27.0	27.0	27.0	54	12.6	1	4	248	0.00	30.079 
18:25	27.0	27.0	27.0	54	12.6	2	5	248	0.00	30.079 
18:30	27.0	27.0	27.0	54	12.6	1	5	248	0.00	30.087 
18:35	26.9	26.9	26.9	55	12.9	0	2	248	0.00	30.087 
18:40	26.9	26.9	26.9	55	12.9	1	4	248	0.00	30.087 
18:45	26.9	26.9	26.9	55	12.9	2	4	248	0.00	30.093 
18:50	26.9	26.9	26.9	55	12.9	1	5	248	0.00	30.093 
18:55	26.9	26.9	26.9	55	12.9	2	7	248	0.00	30.093 
19:00	26.9	26.9	26.9	55	12.9	1	5	248	0.00	30.101 
19:05	26.9	26.9	26.9	55	12.9	1	6	248	0.00	30.101 
19:10	26.9	26.9	26.9	56	13.3	2	6	248	0.00	30.101 
19:15	26.9	26.9	26.9	56	13.3	1	4	248	0.00	30.105 
19:20	26.9	26.9	26.9	56	13.3	1	4	248	0.00	30.105 
19:25	27.0	27.0	27.0	56	13.4	1	5	248	0.00	30.105 
19:30	27.0	27.0	27.0	56	13.4	2	5	248	0.00	30.106 
19:35	27.0	27.0	27.0	56	13.4	2	6	248	0.00	30.106 
19:40	27.2	27.2	27.2	56	13.6	2	5	248	0.00	30.106 
19:45	27.2	27.2	27.2	56	13.6	2	9	248	0.00	30.107 
19:50	27.3	27.3	27.3	56	13.7	2	5	248	0.00	30.107 
19:55	27.3	27.3	27.3	56	13.7	2	6	248	0.00	30.107 
20:00	27.3	27.3	27.3	56	13.7	1	3	248	0.00	30.108 
20:05	27.5	27.5	27.5	56	13.9	3	10	248	0.00	30.108 
20:10	27.5	27.5	27.5	56	13.9	1	5	248	0.00	30.108 
20:15	27.5	27.5	27.5	56	13.9	1	5	248	0.00	30.119 
20:20	27.5	27.5	27.5	56	13.9	2	5	248	0.00	30.119 
20:25	27.6	27.6	27.6	56	14.0	1	6	248	0.00	30.119 
20:30	27.6	27.6	27.6	56	14.0	2	4	248	0.00	30.120 
20:35	27.6	27.6	27.6	56	14.0	2	6	248	0.00	30.120 
20:40	27.6	27.6	27.6	57	14.4	2	7	248	0.00	30.120 
20:45	27.6	27.6	27.6	57	14.4	2	6	248	0.00	30.120 
20:50	27.6	27.6	27.6	57	14.4	2	6	248	0.00	30.120 
20:55	27.8	27.8	27.8	56	14.2	3	9	248	0.00	30.120 
21:00	27.9	27.9	27.9	56	14.3	2	5	248	0.00	30.119 
21:05	27.9	27.9	27.9	56	14.3	2	6	248	0.00	30.119 
21:10	27.9	27.9	27.9	56	14.3	2	6	270	0.00	30.119 
21:15	28.1	28.1	28.1	56	14.5	2	7	270	0.00	30.120 
21:20	28.2	28.2	28.2	56	14.5	2	6	248	0.00	30.120 
21:25	28.2	28.2	28.2	56	14.5	2	6	270	0.00	30.120 
21:30	28.2	28.2	28.2	57	14.9	2	4	270	0.00	30.119 
21:35	28.1	28.1	28.1	57	14.9	2	5	270	0.00	30.119 
21:40	28.1	28.1	28.1	58	15.3	1	5	248	0.00	30.119 
21:45	27.9	27.9	27.9	58	15.1	2	5	270	0.00	30.118 
21:50	27.8	27.8	27.8	58	15.0	1	3	270	0.00	30.118 
21:55	27.6	27.6	27.6	59	15.2	1	3	270	0.00	30.118 
22:00	27.5	27.5	27.5	59	15.1	1	5	270	0.00	30.117 
22:05	27.5	27.5	27.5	59	15.1	2	4	270	0.00	30.117 
22:10	27.5	27.5	27.5	59	15.1	3	7	270	0.00	30.117 
22:15	27.3	27.3	27.3	60	15.3	1	4	248	0.00	30.124 
22:20	27.3	27.3	27.3	60	15.3	1	6	292	0.00	30.124 
22:25	27.2	27.2	27.2	60	15.2	1	4	248	0.00	30.124 
22:30	27.2	27.2	27.2	60	15.2	1	5	248	0.00	30.124 
22:35	27.0	27.0	27.0	60	15.0	1	5	270	0.00	30.124 
22:40	27.0	27.0	27.0	60	15.0	1	3	270	0.00	30.124 
22:45	27.0	27.0	27.0	60	15.0	1	4	248	0.00	30.140 
22:50	27.0	27.0	27.0	60	15.0	1	4	248	0.00	30.140 
22:55	27.0	27.0	27.0	61	15.4	1	3	248	0.00	30.140 
23:00	27.0	27.0	27.0	61	15.4	1	4	248	0.00	30.139 
23:05	27.0	27.0	27.0	61	15.4	1	3	248	0.00	30.139 
23:10	27.0	27.0	27.0	61	15.4	0	3	248	0.00	30.139 
23:15	27.0	27.0	27.0	61	15.4	1	3	248	0.00	30.142 
23:20	27.2	27.2	27.2	61	15.6	1	3	248	0.00	30.142 
23:25	27.2	27.2	27.2	61	15.6	1	3	248	0.00	30.142 
23:30	27.2	27.2	27.2	61	15.6	1	4	248	0.00	30.146 
23:35	27.2	27.2	27.2	61	15.6	0	3	248	0.00	30.146 
23:40	27.0	27.0	27.0	61	15.4	0	4	248	0.00	30.146 
23:45	27.0	27.0	27.0	61	15.4	0	2	248	0.00	30.150 
23:50	27.0	27.0	27.0	61	15.4	0	3	248	0.00	30.150 
23:55	27.0	27.0	27.0	61	15.4	1	2	248	0.00	30.150 

CoCoRaHS
IN-AL-39
A2 Web Hosting
Creative Commons License
GoDaddy
search engine by freefind advanced

loaded 2018-11-15 16:19:22 • last modified 2010-11-18 10:43:29
Privacy PolicyDisclaimer
• wx.awcolley.com is powered by PmWiki v.2002016 •
• all content (unless otherwise noted) © 2018 A W Colley